createdAt,value
2022-11-21T00:00:54.961Z,998.63
2022-11-21T00:01:55.021Z,998.60
2022-11-21T00:02:54.970Z,998.62
2022-11-21T00:03:54.943Z,998.55
2022-11-21T00:04:54.963Z,998.50
2022-11-21T00:05:54.936Z,998.59
2022-11-21T00:06:54.897Z,998.57
2022-11-21T00:07:54.901Z,998.54
2022-11-21T00:08:54.876Z,998.53
2022-11-21T00:09:54.903Z,998.48
2022-11-21T00:10:54.861Z,998.48
2022-11-21T00:11:54.833Z,998.45
2022-11-21T00:12:54.820Z,998.49
2022-11-21T00:13:54.812Z,998.41
2022-11-21T00:14:54.836Z,998.38
2022-11-21T00:15:54.793Z,998.40
2022-11-21T00:16:57.508Z,998.37
2022-11-21T00:17:54.780Z,998.39
2022-11-21T00:18:54.752Z,998.31
2022-11-21T00:19:54.781Z,998.34
2022-11-21T00:20:54.737Z,998.34
2022-11-21T00:21:54.739Z,998.36
2022-11-21T00:22:54.720Z,998.37
2022-11-21T00:23:54.720Z,998.37
2022-11-21T00:24:54.740Z,998.37
2022-11-21T00:25:54.701Z,998.30
2022-11-21T00:26:54.673Z,998.27
2022-11-21T00:27:54.656Z,998.27
2022-11-21T00:28:54.655Z,998.30
2022-11-21T00:29:54.688Z,998.27
2022-11-21T00:30:54.632Z,998.21
2022-11-21T00:31:54.619Z,998.24
2022-11-21T00:32:54.608Z,998.22
2022-11-21T00:33:54.592Z,998.16
2022-11-21T00:34:54.610Z,998.18
2022-11-21T00:35:54.579Z,998.13
2022-11-21T00:36:54.543Z,998.08
2022-11-21T00:37:54.556Z,998.09
2022-11-21T00:38:54.541Z,998.03
2022-11-21T00:39:54.549Z,998.04
2022-11-21T00:40:54.517Z,997.98
2022-11-21T00:41:54.502Z,997.99
2022-11-21T00:42:54.496Z,997.97
2022-11-21T00:43:54.508Z,997.97
2022-11-21T00:44:54.525Z,997.98
2022-11-21T00:45:54.455Z,997.95
2022-11-21T00:46:54.463Z,997.97
2022-11-21T00:47:54.463Z,997.94
2022-11-21T00:48:54.413Z,997.97
2022-11-21T00:49:54.448Z,997.98
2022-11-21T00:50:54.387Z,997.92
2022-11-21T00:51:54.385Z,997.95
2022-11-21T00:52:54.384Z,997.97
2022-11-21T00:53:54.376Z,997.99
2022-11-21T00:54:54.399Z,997.94
2022-11-21T00:55:54.369Z,997.93
2022-11-21T00:56:54.344Z,997.92
2022-11-21T00:57:54.338Z,997.91
2022-11-21T00:58:54.325Z,997.87
2022-11-21T00:59:54.339Z,997.85
2022-11-21T01:00:54.339Z,997.80
2022-11-21T01:01:54.315Z,997.84
2022-11-21T01:02:54.277Z,997.81
2022-11-21T01:03:54.257Z,997.81
2022-11-21T01:04:54.276Z,997.79
2022-11-21T01:05:54.241Z,997.80
2022-11-21T01:06:54.250Z,997.74
2022-11-21T01:07:54.229Z,997.76
2022-11-21T01:08:54.213Z,997.73
2022-11-21T01:09:54.266Z,997.72
2022-11-21T01:10:54.180Z,997.70
2022-11-21T01:11:54.181Z,997.69
2022-11-21T01:12:54.154Z,997.67
2022-11-21T01:13:54.171Z,997.71
2022-11-21T01:14:54.192Z,997.66
2022-11-21T01:15:54.144Z,997.67
2022-11-21T01:16:54.118Z,997.63
2022-11-21T01:17:54.121Z,997.63
2022-11-21T01:18:54.086Z,997.62
2022-11-21T01:19:54.128Z,997.58
2022-11-21T01:20:54.070Z,997.56
2022-11-21T01:21:54.063Z,997.60
2022-11-21T01:22:54.050Z,997.56
2022-11-21T01:23:54.054Z,997.56
2022-11-21T01:24:54.045Z,997.52
2022-11-21T01:25:54.001Z,997.51
2022-11-21T01:26:53.998Z,997.50
2022-11-21T01:27:53.985Z,997.45
2022-11-21T01:28:53.981Z,997.47
2022-11-21T01:29:54.034Z,997.44
2022-11-21T01:30:53.959Z,997.42
2022-11-21T01:31:53.959Z,997.42
2022-11-21T01:32:53.938Z,997.36
2022-11-21T01:33:53.964Z,997.36
2022-11-21T01:34:53.957Z,997.30
2022-11-21T01:35:53.896Z,997.35
2022-11-21T01:36:53.899Z,997.29
2022-11-21T01:37:53.897Z,997.20
2022-11-21T01:38:53.884Z,997.20
2022-11-21T01:39:53.898Z,997.22
2022-11-21T01:40:53.854Z,997.21
2022-11-21T01:41:53.841Z,997.19
2022-11-21T01:42:53.811Z,997.13
2022-11-21T01:43:53.817Z,997.20
2022-11-21T01:44:53.818Z,997.15
2022-11-21T01:45:53.850Z,997.11
2022-11-21T01:46:53.775Z,997.11
2022-11-21T01:47:53.785Z,997.12
2022-11-21T01:48:53.753Z,997.12
2022-11-21T01:49:53.756Z,997.09
2022-11-21T01:50:53.785Z,997.13
2022-11-21T01:51:53.741Z,997.12
2022-11-21T01:52:53.716Z,997.06
2022-11-21T01:53:53.717Z,997.08
2022-11-21T01:54:53.702Z,997.04
2022-11-21T01:55:53.720Z,997.04
2022-11-21T01:56:53.677Z,997.04
2022-11-21T01:57:53.670Z,997.01
2022-11-21T01:58:53.664Z,997.04
2022-11-21T01:59:53.645Z,997.05
2022-11-21T02:00:53.679Z,997.05
2022-11-21T02:01:53.608Z,996.99
2022-11-21T02:02:53.597Z,997.00
2022-11-21T02:03:53.586Z,997.03
2022-11-21T02:04:53.594Z,997.06
2022-11-21T02:05:53.618Z,997.07
2022-11-21T02:06:53.573Z,997.04
2022-11-21T02:07:53.556Z,997.05
2022-11-21T02:08:53.547Z,997.02
2022-11-21T02:09:53.541Z,997.05
2022-11-21T02:10:53.557Z,997.05
2022-11-21T02:11:53.524Z,997.07
2022-11-21T02:12:53.491Z,997.04
2022-11-21T02:13:53.486Z,997.05
2022-11-21T02:14:53.476Z,997.06
2022-11-21T02:15:53.504Z,997.03
2022-11-21T02:16:53.436Z,997.04
2022-11-21T02:17:53.436Z,996.99
2022-11-21T02:18:53.434Z,996.99
2022-11-21T02:19:53.454Z,996.99
2022-11-21T02:20:53.447Z,997.02
2022-11-21T02:21:53.398Z,996.99
2022-11-21T02:22:53.399Z,997.02
2022-11-21T02:23:57.659Z,997.01
2022-11-21T02:24:54.357Z,996.99
2022-11-21T02:25:53.382Z,997.02
2022-11-21T02:26:53.326Z,997.01
2022-11-21T02:27:53.329Z,996.97
2022-11-21T02:28:53.314Z,996.98
2022-11-21T02:29:53.322Z,996.99
2022-11-21T02:30:53.345Z,996.95
2022-11-21T02:31:53.305Z,996.97
2022-11-21T02:32:53.272Z,996.96
2022-11-21T02:33:53.264Z,997.00
2022-11-21T02:34:53.264Z,996.95
2022-11-21T02:35:53.302Z,996.93
2022-11-21T02:36:53.221Z,996.92
2022-11-21T02:37:53.219Z,996.90
2022-11-21T02:38:53.196Z,996.96
2022-11-21T02:39:53.184Z,996.89
2022-11-21T02:40:53.214Z,996.89
2022-11-21T02:41:53.180Z,996.82
2022-11-21T02:42:53.174Z,996.81
2022-11-21T02:43:53.164Z,996.78
2022-11-21T02:44:53.131Z,996.80
2022-11-21T02:45:53.181Z,996.72
2022-11-21T02:46:53.110Z,996.72
2022-11-21T02:47:53.113Z,996.65
2022-11-21T02:48:53.087Z,996.68
2022-11-21T02:49:53.099Z,996.62
2022-11-21T02:50:53.107Z,996.63
2022-11-21T02:51:53.079Z,996.60
2022-11-21T02:52:53.031Z,996.58
2022-11-21T02:53:53.045Z,996.59
2022-11-21T02:54:53.038Z,996.59
2022-11-21T02:55:53.099Z,996.53
2022-11-21T02:56:53.014Z,996.54
2022-11-21T02:57:52.993Z,996.60
2022-11-21T02:58:53.012Z,996.57
2022-11-21T02:59:52.982Z,996.60
2022-11-21T03:00:53.038Z,996.60
2022-11-21T03:01:52.957Z,996.55
2022-11-21T03:02:52.970Z,996.56
2022-11-21T03:03:52.937Z,996.52
2022-11-21T03:04:52.923Z,996.49
2022-11-21T03:05:52.921Z,996.48
2022-11-21T03:06:52.946Z,996.46
2022-11-21T03:07:52.906Z,996.45
2022-11-21T03:08:52.894Z,996.44
2022-11-21T03:09:52.875Z,996.44
2022-11-21T03:10:52.862Z,996.40
2022-11-21T03:11:52.868Z,996.37
2022-11-21T03:12:52.856Z,996.35
2022-11-21T03:13:52.811Z,996.35
2022-11-21T03:14:52.811Z,996.35
2022-11-21T03:15:53.518Z,996.35
2022-11-21T03:16:52.832Z,996.33
2022-11-21T03:17:52.772Z,996.33
2022-11-21T03:18:52.779Z,996.28
2022-11-21T03:19:52.748Z,996.30
2022-11-21T03:20:52.761Z,996.27
2022-11-21T03:21:52.785Z,996.21
2022-11-21T03:22:52.728Z,996.25
2022-11-21T03:23:52.717Z,996.25
2022-11-21T03:24:52.701Z,996.21
2022-11-21T03:25:52.692Z,996.20
2022-11-21T03:26:52.721Z,996.22
2022-11-21T03:27:52.673Z,996.19
2022-11-21T03:28:52.664Z,996.21
2022-11-21T03:29:52.650Z,996.20
2022-11-21T03:30:52.648Z,996.15
2022-11-21T03:31:52.650Z,996.16
2022-11-21T03:32:52.617Z,996.13
2022-11-21T03:33:52.594Z,996.15
2022-11-21T03:34:52.591Z,996.09
2022-11-21T03:35:52.573Z,996.10
2022-11-21T03:36:52.590Z,996.06
2022-11-21T03:37:52.543Z,996.08
2022-11-21T03:38:52.559Z,996.05
2022-11-21T03:39:52.539Z,996.05
2022-11-21T03:40:52.540Z,995.99
2022-11-21T03:41:52.599Z,995.98
2022-11-21T03:42:52.506Z,995.93
2022-11-21T03:43:52.491Z,995.91
2022-11-21T03:44:52.476Z,995.88
2022-11-21T03:45:52.475Z,995.94
2022-11-21T03:46:52.496Z,995.87
2022-11-21T03:47:52.451Z,995.83
2022-11-21T03:48:52.444Z,995.83
2022-11-21T03:49:52.423Z,995.84
2022-11-21T03:50:52.402Z,995.76
2022-11-21T03:51:52.422Z,995.79
2022-11-21T03:52:52.383Z,995.80
2022-11-21T03:53:52.366Z,995.75
2022-11-21T03:54:52.381Z,995.72
2022-11-21T03:55:52.352Z,995.71
2022-11-21T03:56:52.381Z,995.70
2022-11-21T03:57:52.330Z,995.69
2022-11-21T03:58:52.317Z,995.69
2022-11-21T03:59:52.318Z,995.69
2022-11-21T04:00:52.323Z,995.72
2022-11-21T04:01:52.359Z,995.65
2022-11-21T04:02:52.271Z,995.68
2022-11-21T04:03:52.271Z,995.68
2022-11-21T04:04:52.274Z,995.68
2022-11-21T04:05:52.251Z,995.70
2022-11-21T04:06:52.291Z,995.66
2022-11-21T04:07:52.228Z,995.69
2022-11-21T04:08:52.221Z,995.70
2022-11-21T04:09:52.183Z,995.70
2022-11-21T04:10:52.212Z,995.66
2022-11-21T04:11:52.218Z,995.67
2022-11-21T04:12:52.181Z,995.63
2022-11-21T04:13:52.150Z,995.62
2022-11-21T04:14:52.161Z,995.66
2022-11-21T04:15:52.136Z,995.63
2022-11-21T04:16:52.159Z,995.63
2022-11-21T04:17:52.113Z,995.60
2022-11-21T04:18:52.121Z,995.62
2022-11-21T04:19:52.088Z,995.61
2022-11-21T04:20:52.091Z,995.57
2022-11-21T04:21:52.106Z,995.59
2022-11-21T04:22:52.065Z,995.59
2022-11-21T04:23:52.053Z,995.61
2022-11-21T04:24:52.038Z,995.59
2022-11-21T04:25:52.023Z,995.63
2022-11-21T04:26:52.053Z,995.57
2022-11-21T04:27:52.033Z,995.59
2022-11-21T04:28:51.990Z,995.61
2022-11-21T04:29:51.988Z,995.60
2022-11-21T04:30:54.839Z,995.64
2022-11-21T04:31:51.993Z,995.56
2022-11-21T04:32:51.966Z,995.61
2022-11-21T04:33:51.946Z,995.57
2022-11-21T04:34:51.942Z,995.55
2022-11-21T04:35:51.913Z,995.55
2022-11-21T04:36:51.971Z,995.52
2022-11-21T04:37:51.904Z,995.53
2022-11-21T04:38:51.921Z,995.55
2022-11-21T04:39:51.866Z,995.53
2022-11-21T04:40:51.874Z,995.58
2022-11-21T04:41:51.895Z,995.57
2022-11-21T04:42:51.863Z,995.52
2022-11-21T04:43:51.835Z,995.50
2022-11-21T04:44:51.847Z,995.53
2022-11-21T04:45:51.826Z,995.50
2022-11-21T04:46:51.839Z,995.50
2022-11-21T04:47:51.794Z,995.52
2022-11-21T04:48:51.783Z,995.48
2022-11-21T04:49:51.774Z,995.45
2022-11-21T04:50:51.774Z,995.50
2022-11-21T04:51:51.772Z,995.49
2022-11-21T04:52:51.727Z,995.43
2022-11-21T04:53:51.732Z,995.40
2022-11-21T04:54:51.724Z,995.43
2022-11-21T04:55:51.706Z,995.40
2022-11-21T04:56:51.751Z,995.39
2022-11-21T04:57:51.666Z,995.34
2022-11-21T04:58:51.672Z,995.40
2022-11-21T04:59:51.656Z,995.33
2022-11-21T05:00:51.691Z,995.33
2022-11-21T05:01:51.633Z,995.31
2022-11-21T05:02:51.657Z,995.34
2022-11-21T05:03:51.598Z,995.33
2022-11-21T05:04:51.586Z,995.29
2022-11-21T05:05:51.585Z,995.34
2022-11-21T05:06:51.600Z,995.27
2022-11-21T05:07:51.614Z,995.27
2022-11-21T05:08:53.589Z,995.27
2022-11-21T05:09:51.548Z,995.25
2022-11-21T05:10:51.535Z,995.24
2022-11-21T05:11:51.535Z,995.25
2022-11-21T05:12:51.587Z,995.28
2022-11-21T05:13:51.504Z,995.27
2022-11-21T05:14:51.500Z,995.34
2022-11-21T05:15:51.506Z,995.28
2022-11-21T05:16:51.478Z,995.28
2022-11-21T05:17:51.496Z,995.28
2022-11-21T05:18:51.460Z,995.26
2022-11-21T05:19:51.453Z,995.32
2022-11-21T05:20:51.460Z,995.33
2022-11-21T05:21:51.419Z,995.34
2022-11-21T05:22:51.443Z,995.30
2022-11-21T05:23:51.406Z,995.36
2022-11-21T05:24:51.408Z,995.35
2022-11-21T05:25:51.380Z,995.33
2022-11-21T05:26:51.380Z,995.29
2022-11-21T05:27:51.401Z,995.33
2022-11-21T05:28:51.371Z,995.31
2022-11-21T05:29:51.334Z,995.29
2022-11-21T05:30:51.357Z,995.25
2022-11-21T05:31:51.333Z,995.24
2022-11-21T05:32:51.335Z,995.22
2022-11-21T05:33:51.302Z,995.26
2022-11-21T05:34:51.286Z,995.27
2022-11-21T05:35:51.264Z,995.24
2022-11-21T05:36:51.251Z,995.27
2022-11-21T05:37:51.270Z,995.31
2022-11-21T05:38:51.228Z,995.26
2022-11-21T05:39:51.201Z,995.29
2022-11-21T05:40:51.206Z,995.26
2022-11-21T05:41:51.217Z,995.29
2022-11-21T05:42:51.254Z,995.25
2022-11-21T05:43:51.172Z,995.28
2022-11-21T05:44:51.180Z,995.27
2022-11-21T05:45:51.165Z,995.26
2022-11-21T05:46:51.153Z,995.25
2022-11-21T05:47:51.178Z,995.32
2022-11-21T05:48:51.137Z,995.34
2022-11-21T05:49:51.106Z,995.37
2022-11-21T05:50:51.117Z,995.35
2022-11-21T05:51:51.101Z,995.37
2022-11-21T05:52:51.092Z,995.39
2022-11-21T05:53:51.120Z,995.39
2022-11-21T05:54:51.057Z,995.36
2022-11-21T05:55:51.054Z,995.38
2022-11-21T05:56:51.029Z,995.35
2022-11-21T05:57:51.053Z,995.35
2022-11-21T05:58:51.060Z,995.36
2022-11-21T05:59:50.985Z,995.35
2022-11-21T06:00:54.445Z,995.35
2022-11-21T06:01:51.977Z,995.37
2022-11-21T06:02:51.095Z,995.39
2022-11-21T06:03:50.993Z,995.38
2022-11-21T06:04:50.954Z,995.37
2022-11-21T06:05:50.948Z,995.37
2022-11-21T06:06:50.932Z,995.39
2022-11-21T06:07:50.934Z,995.36
2022-11-21T06:08:50.944Z,995.38
2022-11-21T06:09:50.891Z,995.38
2022-11-21T06:10:50.900Z,995.36
2022-11-21T06:11:50.863Z,995.33
2022-11-21T06:12:50.876Z,995.35
2022-11-21T06:13:50.872Z,995.36
2022-11-21T06:14:50.843Z,995.34
2022-11-21T06:15:50.857Z,995.36
2022-11-21T06:16:50.831Z,995.35
2022-11-21T06:17:50.815Z,995.35
2022-11-21T06:18:55.129Z,995.38
2022-11-21T06:19:51.773Z,995.37
2022-11-21T06:20:50.777Z,995.37
2022-11-21T06:21:50.774Z,995.41
2022-11-21T06:22:50.767Z,995.42
2022-11-21T06:23:50.780Z,995.46
2022-11-21T06:24:50.741Z,995.52
2022-11-21T06:25:50.737Z,995.49
2022-11-21T06:26:50.732Z,995.54
2022-11-21T06:27:50.691Z,995.58
2022-11-21T06:28:50.722Z,995.54
2022-11-21T06:29:50.680Z,995.57
2022-11-21T06:30:50.680Z,995.57
2022-11-21T06:31:50.650Z,995.57
2022-11-21T06:32:50.700Z,995.60
2022-11-21T06:33:50.691Z,995.64
2022-11-21T06:34:50.647Z,995.63
2022-11-21T06:35:50.611Z,995.68
2022-11-21T06:36:50.605Z,995.65
2022-11-21T06:37:53.485Z,995.67
2022-11-21T06:38:50.581Z,995.70
2022-11-21T06:39:50.617Z,995.69
2022-11-21T06:40:50.557Z,995.71
2022-11-21T06:41:50.561Z,995.71
2022-11-21T06:42:50.539Z,995.73
2022-11-21T06:43:50.525Z,995.74
2022-11-21T06:44:50.559Z,995.76
2022-11-21T06:45:50.520Z,995.77
2022-11-21T06:46:51.681Z,995.73
2022-11-21T06:47:50.485Z,995.78
2022-11-21T06:48:50.470Z,995.82
2022-11-21T06:49:50.495Z,995.86
2022-11-21T06:50:50.445Z,995.88
2022-11-21T06:51:50.429Z,995.92
2022-11-21T06:52:50.419Z,995.95
2022-11-21T06:53:50.413Z,995.93
2022-11-21T06:54:50.445Z,995.97
2022-11-21T06:55:50.395Z,995.99
2022-11-21T06:56:50.409Z,996.01
2022-11-21T06:57:50.378Z,995.99
2022-11-21T06:58:50.382Z,996.03
2022-11-21T06:59:50.394Z,996.03
2022-11-21T07:00:50.453Z,996.05
2022-11-21T07:01:50.378Z,996.01
2022-11-21T07:02:50.313Z,996.06
2022-11-21T07:03:50.312Z,996.13
2022-11-21T07:04:50.346Z,996.12
2022-11-21T07:05:50.293Z,996.16
2022-11-21T07:06:50.276Z,996.11
2022-11-21T07:07:50.272Z,996.09
2022-11-21T07:09:05.014Z,996.08
2022-11-21T07:09:51.423Z,996.11
2022-11-21T07:11:17.748Z,996.06
2022-11-21T07:11:51.200Z,996.10
2022-11-21T07:12:50.202Z,996.14
2022-11-21T07:13:50.209Z,996.16
2022-11-21T07:14:50.221Z,996.20
2022-11-21T07:15:50.182Z,996.21
2022-11-21T07:16:50.169Z,996.23
2022-11-21T07:17:50.166Z,996.27
2022-11-21T07:18:50.155Z,996.24
2022-11-21T07:19:50.212Z,996.25
2022-11-21T07:20:50.126Z,996.28
2022-11-21T07:21:50.114Z,996.29
2022-11-21T07:22:50.109Z,996.29
2022-11-21T07:23:50.107Z,996.32
2022-11-21T07:24:50.118Z,996.36
2022-11-21T07:25:50.081Z,996.38
2022-11-21T07:26:50.047Z,996.34
2022-11-21T07:27:50.055Z,996.38
2022-11-21T07:28:50.047Z,996.37
2022-11-21T07:29:50.053Z,996.38
2022-11-21T07:30:50.007Z,996.36
2022-11-21T07:31:50.024Z,996.43
2022-11-21T07:32:49.987Z,996.41
2022-11-21T07:33:50.000Z,996.43
2022-11-21T07:34:49.989Z,996.47
2022-11-21T07:35:50.020Z,996.48
2022-11-21T07:36:49.956Z,996.49
2022-11-21T07:37:49.938Z,996.51
2022-11-21T07:38:49.923Z,996.48
2022-11-21T07:39:49.918Z,996.55
2022-11-21T07:40:49.924Z,996.57
2022-11-21T07:41:49.907Z,996.53
2022-11-21T07:42:49.902Z,996.58
2022-11-21T07:43:49.868Z,996.56
2022-11-21T07:44:49.873Z,996.66
2022-11-21T07:45:49.904Z,996.64
2022-11-21T07:46:49.857Z,996.64
2022-11-21T07:47:49.850Z,996.68
2022-11-21T07:48:49.825Z,996.72
2022-11-21T07:49:49.824Z,996.75
2022-11-21T07:50:49.831Z,996.82
2022-11-21T07:51:49.794Z,996.75
2022-11-21T07:52:49.782Z,996.78
2022-11-21T07:53:49.761Z,996.79
2022-11-21T07:54:49.768Z,996.86
2022-11-21T07:55:49.781Z,996.86
2022-11-21T07:56:49.729Z,996.86
2022-11-21T07:57:49.747Z,996.93
2022-11-21T07:58:49.725Z,996.89
2022-11-21T07:59:49.697Z,996.90
2022-11-21T08:00:49.724Z,996.91
2022-11-21T08:01:49.715Z,996.97
2022-11-21T08:02:49.656Z,996.96
2022-11-21T08:03:49.657Z,996.95
2022-11-21T08:04:49.635Z,996.94
2022-11-21T08:05:49.705Z,996.95
2022-11-21T08:06:49.641Z,996.99
2022-11-21T08:07:49.611Z,996.97
2022-11-21T08:08:50.551Z,997.01
2022-11-21T08:09:49.591Z,997.02
2022-11-21T08:10:49.612Z,997.03
2022-11-21T08:11:49.590Z,997.04
2022-11-21T08:12:49.550Z,997.07
2022-11-21T08:13:49.555Z,997.10
2022-11-21T08:14:49.517Z,997.10
2022-11-21T08:15:49.560Z,997.12
2022-11-21T08:16:49.508Z,997.11
2022-11-21T08:17:49.506Z,997.11
2022-11-21T08:18:49.504Z,997.16
2022-11-21T08:19:49.479Z,997.16
2022-11-21T08:20:49.499Z,997.19
2022-11-21T08:21:49.460Z,997.17
2022-11-21T08:22:49.454Z,997.24
2022-11-21T08:23:49.439Z,997.19
2022-11-21T08:24:49.465Z,997.24
2022-11-21T08:25:49.464Z,997.24
2022-11-21T08:26:49.418Z,997.27
2022-11-21T08:27:49.405Z,997.35
2022-11-21T08:28:49.379Z,997.35
2022-11-21T08:29:49.407Z,997.33
2022-11-21T08:30:49.380Z,997.32
2022-11-21T08:31:49.358Z,997.37
2022-11-21T08:32:49.338Z,997.39
2022-11-21T08:33:49.340Z,997.36
2022-11-21T08:34:49.314Z,997.38
2022-11-21T08:35:49.333Z,997.39
2022-11-21T08:36:49.298Z,997.40
2022-11-21T08:37:49.302Z,997.40
2022-11-21T08:38:49.254Z,997.42
2022-11-21T08:39:49.267Z,997.42
2022-11-21T08:40:49.267Z,997.47
2022-11-21T08:41:49.251Z,997.45
2022-11-21T08:42:49.229Z,997.43
2022-11-21T08:43:49.224Z,997.46
2022-11-21T08:44:49.231Z,997.45
2022-11-21T08:45:49.234Z,997.49
2022-11-21T08:46:49.201Z,997.50
2022-11-21T08:47:49.182Z,997.54
2022-11-21T08:48:49.157Z,997.50
2022-11-21T08:49:49.157Z,997.51
2022-11-21T08:50:49.171Z,997.53
2022-11-21T08:51:49.174Z,997.53
2022-11-21T08:52:49.105Z,997.58
2022-11-21T08:53:49.117Z,997.56
2022-11-21T08:54:49.107Z,997.55
2022-11-21T08:55:49.130Z,997.56
2022-11-21T08:56:49.064Z,997.58
2022-11-21T08:57:49.061Z,997.64
2022-11-21T08:58:49.074Z,997.66
2022-11-21T08:59:49.042Z,997.64
2022-11-21T09:00:49.062Z,997.67
2022-11-21T09:01:49.069Z,997.67
2022-11-21T09:02:49.034Z,997.69
2022-11-21T09:03:49.021Z,997.71
2022-11-21T09:04:48.976Z,997.73
2022-11-21T09:05:49.003Z,997.74
2022-11-21T09:06:48.968Z,997.77
2022-11-21T09:07:49.038Z,997.75
2022-11-21T09:08:48.944Z,997.76
2022-11-21T09:09:48.937Z,997.78
2022-11-21T09:10:48.956Z,997.77
2022-11-21T09:11:48.919Z,997.80
2022-11-21T09:12:48.895Z,997.79
2022-11-21T09:13:48.879Z,997.79
2022-11-21T09:14:49.523Z,997.86
2022-11-21T09:15:48.887Z,997.85
2022-11-21T09:16:48.837Z,997.87
2022-11-21T09:17:48.824Z,997.84
2022-11-21T09:18:48.831Z,997.87
2022-11-21T09:19:48.814Z,997.89
2022-11-21T09:20:48.902Z,997.90
2022-11-21T09:21:48.799Z,997.92
2022-11-21T09:22:48.780Z,997.87
2022-11-21T09:23:48.772Z,997.89
2022-11-21T09:24:48.758Z,997.90
2022-11-21T09:25:48.785Z,997.87
2022-11-21T09:26:48.829Z,997.87
2022-11-21T09:27:48.725Z,997.90
2022-11-21T09:28:48.723Z,997.85
2022-11-21T09:29:53.870Z,997.86
2022-11-21T09:30:49.748Z,997.86
2022-11-21T09:31:48.695Z,997.86
2022-11-21T09:32:48.671Z,997.87
2022-11-21T09:33:53.595Z,997.87
2022-11-21T09:34:49.672Z,997.81
2022-11-21T09:35:48.674Z,997.81
2022-11-21T09:36:48.643Z,997.81
2022-11-21T09:37:48.628Z,997.83
2022-11-21T09:38:48.600Z,997.83
2022-11-21T09:39:49.072Z,997.92
2022-11-21T09:40:48.598Z,997.95
2022-11-21T09:41:48.606Z,997.91
2022-11-21T09:42:48.562Z,997.89
2022-11-21T09:43:53.045Z,997.93
2022-11-21T09:44:49.558Z,997.96
2022-11-21T09:45:48.537Z,998.01
2022-11-21T09:46:48.548Z,998.03
2022-11-21T09:47:48.503Z,998.01
2022-11-21T09:48:48.489Z,998.06
2022-11-21T09:49:48.483Z,998.09
2022-11-21T09:50:53.564Z,998.04
2022-11-21T09:51:49.508Z,998.10
2022-11-21T09:52:48.427Z,998.13
2022-11-21T09:53:49.652Z,998.08
2022-11-21T09:54:48.415Z,998.04
2022-11-21T09:55:48.416Z,998.07
2022-11-21T09:56:48.449Z,998.03
2022-11-21T09:57:48.420Z,998.04
2022-11-21T09:58:48.401Z,998.04
2022-11-21T09:59:48.370Z,998.02
2022-11-21T10:00:48.379Z,998.04
2022-11-21T10:01:48.383Z,998.01
2022-11-21T10:02:48.343Z,998.11
2022-11-21T10:03:48.325Z,998.09
2022-11-21T10:04:48.330Z,998.10
2022-11-21T10:05:48.303Z,998.11
2022-11-21T10:06:48.329Z,998.15
2022-11-21T10:07:48.316Z,998.13
2022-11-21T10:08:48.267Z,998.12
2022-11-21T10:09:48.349Z,998.15
2022-11-21T10:10:48.238Z,998.19
2022-11-21T10:11:48.255Z,998.20
2022-11-21T10:12:48.222Z,998.16
2022-11-21T10:13:48.197Z,998.15
2022-11-21T10:14:48.257Z,998.17
2022-11-21T10:15:48.190Z,998.21
2022-11-21T10:16:48.205Z,998.18
2022-11-21T10:17:48.279Z,998.19
2022-11-21T10:18:49.529Z,998.24
2022-11-21T10:19:48.151Z,998.28
2022-11-21T10:20:48.113Z,998.29
2022-11-21T10:21:48.156Z,998.26
2022-11-21T10:22:48.134Z,998.30
2022-11-21T10:23:48.111Z,998.28
2022-11-21T10:24:48.074Z,998.32
2022-11-21T10:25:48.088Z,998.29
2022-11-21T10:26:48.065Z,998.24
2022-11-21T10:27:48.037Z,998.32
2022-11-21T10:28:48.019Z,998.30
2022-11-21T10:29:48.016Z,998.33
2022-11-21T10:30:48.033Z,998.31
2022-11-21T10:31:48.042Z,998.28
2022-11-21T10:32:47.997Z,998.29
2022-11-21T10:33:47.988Z,998.31
2022-11-21T10:34:47.946Z,998.28
2022-11-21T10:35:47.956Z,998.33
2022-11-21T10:36:47.986Z,998.34
2022-11-21T10:37:47.924Z,998.35
2022-11-21T10:38:47.914Z,998.35
2022-11-21T10:39:47.920Z,998.37
2022-11-21T10:40:47.893Z,998.37
2022-11-21T10:41:47.929Z,998.39
2022-11-21T10:42:48.626Z,998.36
2022-11-21T10:43:47.887Z,998.36
2022-11-21T10:44:47.860Z,998.38
2022-11-21T10:45:47.844Z,998.34
2022-11-21T10:46:47.861Z,998.41
2022-11-21T10:47:47.812Z,998.41
2022-11-21T10:48:47.819Z,998.41
2022-11-21T10:49:47.801Z,998.41
2022-11-21T10:50:47.798Z,998.46
2022-11-21T10:51:47.852Z,998.46
2022-11-21T10:52:48.114Z,998.48
2022-11-21T10:53:47.759Z,998.49
2022-11-21T10:54:47.748Z,998.51
2022-11-21T10:55:47.739Z,998.54
2022-11-21T10:56:47.712Z,998.55
2022-11-21T10:57:47.744Z,998.56
2022-11-21T10:58:48.168Z,998.55
2022-11-21T10:59:47.690Z,998.50
2022-11-21T11:00:47.716Z,998.57
2022-11-21T11:01:48.060Z,998.59
2022-11-21T11:02:47.683Z,998.57
2022-11-21T11:04:06.949Z,998.56
2022-11-21T11:04:52.191Z,998.58
2022-11-21T11:05:47.631Z,998.58
2022-11-21T11:06:47.620Z,998.57
2022-11-21T11:07:47.683Z,998.57
2022-11-21T11:08:47.623Z,998.55
2022-11-21T11:09:47.601Z,998.54
2022-11-21T11:10:47.554Z,998.49
2022-11-21T11:11:48.150Z,998.53
2022-11-21T11:12:47.576Z,998.49
2022-11-21T11:13:49.414Z,998.54
2022-11-21T11:14:47.525Z,998.50
2022-11-21T11:15:47.531Z,998.54
2022-11-21T11:16:47.494Z,998.56
2022-11-21T11:17:48.097Z,998.49
2022-11-21T11:18:47.480Z,998.49
2022-11-21T11:19:47.955Z,998.46
2022-11-21T11:20:47.470Z,998.45
2022-11-21T11:21:47.436Z,998.54
2022-11-21T11:22:48.083Z,998.53
2022-11-21T11:23:47.444Z,998.55
2022-11-21T11:24:47.416Z,998.53
2022-11-21T11:25:47.900Z,998.53
2022-11-21T11:26:48.645Z,998.51
2022-11-21T11:27:47.415Z,998.58
2022-11-21T11:28:47.916Z,998.59
2022-11-21T11:29:47.350Z,998.55
2022-11-21T11:30:47.346Z,998.60
2022-11-21T11:31:47.339Z,998.56
2022-11-21T11:32:48.072Z,998.58
2022-11-21T11:33:47.293Z,998.59
2022-11-21T11:34:47.320Z,998.59
2022-11-21T11:35:47.281Z,998.63
2022-11-21T11:36:47.320Z,998.60
2022-11-21T11:37:47.267Z,998.65
2022-11-21T11:38:47.353Z,998.67
2022-11-21T11:39:48.119Z,998.68
2022-11-21T11:40:47.216Z,998.69
2022-11-21T11:41:47.302Z,998.74
2022-11-21T11:42:47.295Z,998.68
2022-11-21T11:43:47.295Z,998.68
2022-11-21T11:44:47.194Z,998.65
2022-11-21T11:45:47.173Z,998.62
2022-11-21T11:46:47.236Z,998.65
2022-11-21T11:47:54.131Z,998.61
2022-11-21T11:49:17.546Z,998.63
2022-11-21T11:49:48.118Z,998.65
2022-11-21T11:50:47.124Z,998.66
2022-11-21T11:51:47.101Z,998.64
2022-11-21T11:52:47.134Z,998.67
2022-11-21T11:53:47.228Z,998.61
2022-11-21T11:54:47.168Z,998.61
2022-11-21T11:55:47.085Z,998.63
2022-11-21T11:56:47.368Z,998.65
2022-11-21T11:57:47.091Z,998.66
2022-11-21T11:58:47.063Z,998.65
2022-11-21T11:59:47.106Z,998.66
2022-11-21T12:00:47.001Z,998.69
2022-11-21T12:01:47.069Z,998.67
2022-11-21T12:02:47.173Z,998.71
2022-11-21T12:03:47.179Z,998.69
2022-11-21T12:04:47.108Z,998.72
2022-11-21T12:05:47.053Z,998.66
2022-11-21T12:08:39.636Z,998.73
2022-11-21T12:08:47.952Z,998.73
2022-11-21T12:09:46.897Z,998.79
2022-11-21T12:10:46.908Z,998.75
2022-11-21T12:11:46.989Z,998.79
2022-11-21T12:12:46.889Z,998.74
2022-11-21T12:13:47.944Z,998.82
2022-11-21T12:14:47.044Z,998.83
2022-11-21T12:15:47.161Z,998.84
2022-11-21T12:16:47.096Z,998.80
2022-11-21T12:17:47.122Z,998.82
2022-11-21T12:18:47.118Z,998.81
2022-11-21T12:19:47.128Z,998.83
2022-11-21T12:20:46.791Z,998.82
2022-11-21T12:21:46.787Z,998.82
2022-11-21T12:22:47.134Z,998.80
2022-11-21T12:23:47.258Z,998.77
2022-11-21T12:24:48.116Z,998.80
2022-11-21T12:25:47.374Z,998.78
2022-11-21T12:26:47.161Z,998.80
2022-11-21T12:27:47.091Z,998.80
2022-11-21T12:28:47.156Z,998.83
2022-11-21T12:29:47.142Z,998.84